Time;durP1;ratioP1;P1;durP2;ratioP2;P2;SDS_P1;SDS_P2;PMS_P1;PMS_P2;Temp;Humidity;BMP_temperature;BMP_pressure;BME280_temperature;BME280_humidity;BME280_pressure;Samples;Min_cycle;Max_cycle;Signal;HPM_P1;HPM_P2
2023/02/07 00:00:15;;;;;;;19.60;12.38;;;0.60;99.90;;;;;;4995576;28;20129;-74
2023/02/07 00:02:44;;;;;;;18.67;11.75;;;0.60;99.90;;;;;;5044171;28;20160;-74
2023/02/07 00:05:10;;;;;;;20.25;11.93;;;0.70;99.90;;;;;;5043903;28;20116;-74
2023/02/07 00:07:36;;;;;;;20.95;12.50;;;0.70;99.90;;;;;;5000046;28;20049;-74
2023/02/07 00:10:03;;;;;;;20.98;12.40;;;0.60;99.90;;;;;;5024228;28;20347;-74
2023/02/07 00:12:29;;;;;;;18.40;11.63;;;0.60;99.90;;;;;;4995420;28;20058;-74
2023/02/07 00:14:55;;;;;;;21.50;12.80;;;0.50;99.90;;;;;;5010453;28;20576;-74
2023/02/07 00:17:20;;;;;;;19.98;12.55;;;0.60;99.90;;;;;;5009821;28;20041;-74
2023/02/07 00:19:46;;;;;;;21.75;12.60;;;0.60;99.90;;;;;;5028217;28;20151;-75
2023/02/07 00:22:12;;;;;;;21.40;12.93;;;0.50;99.90;;;;;;4994218;28;20042;-75
2023/02/07 00:24:38;;;;;;;23.17;12.73;;;0.70;99.90;;;;;;5024886;28;20038;-74
2023/02/07 00:27:04;;;;;;;21.95;12.85;;;0.50;99.90;;;;;;5011651;28;20709;-74
2023/02/07 00:29:31;;;;;;;24.92;15.23;;;0.50;99.90;;;;;;5027882;28;20467;-74
2023/02/07 00:31:57;;;;;;;25.23;14.52;;;0.50;99.90;;;;;;5010368;28;20046;-74
2023/02/07 00:34:23;;;;;;;22.85;13.10;;;0.60;99.90;;;;;;5022214;28;20674;-74
2023/02/07 00:36:49;;;;;;;21.75;13.35;;;0.60;99.90;;;;;;5007839;28;20046;-74
2023/02/07 00:39:15;;;;;;;22.30;13.80;;;0.50;99.90;;;;;;5037958;28;20054;-73
2023/02/07 00:41:41;;;;;;;25.75;14.13;;;0.50;99.90;;;;;;5028195;28;20120;-74
2023/02/07 00:44:07;;;;;;;29.08;15.68;;;0.70;99.90;;;;;;5009307;28;20175;-73
2023/02/07 00:46:33;;;;;;;25.50;13.95;;;0.60;99.90;;;;;;5025563;28;20117;-74
2023/02/07 00:48:59;;;;;;;25.10;14.75;;;0.60;99.90;;;;;;5031299;28;20060;-74
2023/02/07 00:51:25;;;;;;;23.35;14.32;;;0.50;99.90;;;;;;5021949;28;20046;-74
2023/02/07 00:53:53;;;;;;;25.42;14.27;;;0.50;99.90;;;;;;5014684;28;20474;-74
2023/02/07 00:56:19;;;;;;;26.45;14.95;;;0.20;99.90;;;;;;4986031;28;20636;-74
2023/02/07 00:58:45;;;;;;;26.55;14.25;;;0.30;99.90;;;;;;5024019;28;20148;-74
2023/02/07 01:01:11;;;;;;;27.50;15.30;;;0.20;99.90;;;;;;5008082;28;20176;-71
2023/02/07 01:03:37;;;;;;;25.42;14.10;;;0.10;99.90;;;;;;5010323;28;20075;-71
2023/02/07 01:06:04;;;;;;;27.63;14.65;;;0.20;99.90;;;;;;5011568;28;20458;-72
2023/02/07 01:08:29;;;;;;;27.83;15.40;;;0.10;99.90;;;;;;5017198;28;20038;-71
2023/02/07 01:10:55;;;;;;;26.45;14.30;;;0.00;99.90;;;;;;5029931;28;20079;-71
2023/02/07 01:13:21;;;;;;;26.77;14.65;;;0.00;99.90;;;;;;5000591;28;20061;-71
2023/02/07 01:15:47;;;;;;;25.48;14.95;;;-0.10;99.90;;;;;;5013633;28;20053;-71
2023/02/07 01:18:13;;;;;;;26.83;15.65;;;-0.10;99.90;;;;;;4999932;28;20064;-71
2023/02/07 01:20:39;;;;;;;28.40;14.93;;;-0.20;99.90;;;;;;5019547;28;20394;-70
2023/02/07 01:23:05;;;;;;;25.90;14.40;;;-0.20;99.90;;;;;;5030155;28;20088;-71
2023/02/07 01:25:32;;;;;;;28.55;15.50;;;-0.20;99.90;;;;;;5017329;28;20080;-72
2023/02/07 01:27:58;;;;;;;25.00;15.02;;;-0.40;99.90;;;;;;5035574;28;20378;-71
2023/02/07 01:30:24;;;;;;;31.52;17.40;;;-0.50;99.90;;;;;;5028147;28;20575;-71
2023/02/07 01:32:49;;;;;;;28.95;16.25;;;-0.60;99.90;;;;;;5020155;28;20336;-71
2023/02/07 01:35:15;;;;;;;27.65;16.08;;;-0.60;99.90;;;;;;5030699;28;20049;-71
2023/02/07 01:37:41;;;;;;;30.40;16.75;;;-0.60;99.90;;;;;;5012529;28;20131;-71
2023/02/07 01:40:08;;;;;;;30.33;16.33;;;-0.80;99.90;;;;;;5003123;28;20562;-71
2023/02/07 01:42:34;;;;;;;28.88;16.00;;;-0.70;99.90;;;;;;5023778;28;20046;-71
2023/02/07 01:45:05;;;;;;;27.42;15.30;;;-0.70;99.90;;;;;;5032697;28;20425;-71
2023/02/07 01:47:31;;;;;;;30.05;16.17;;;-0.80;99.90;;;;;;5013057;28;20071;-71
2023/02/07 01:49:56;;;;;;;30.50;15.75;;;-0.90;99.90;;;;;;5029304;28;20046;-71
2023/02/07 01:52:29;;;;;;;26.50;15.07;;;-1.00;99.90;;;;;;5035878;28;20132;-71
2023/02/07 01:54:58;;;;;;;28.02;15.20;;;-0.80;99.90;;;;;;5033517;28;20042;-71
2023/02/07 01:57:23;;;;;;;;;;;-0.80;99.90;;;;;;5028984;28;20041;-71
2023/02/07 01:59:50;;;;;;;28.02;14.55;;;-1.00;99.90;;;;;;5019611;28;19939;-71
2023/02/07 02:02:16;;;;;;;26.55;14.15;;;-1.00;99.90;;;;;;5016791;28;20068;-71
2023/02/07 02:04:42;;;;;;;25.88;13.60;;;-1.10;99.90;;;;;;5010892;28;20661;-71
2023/02/07 02:07:09;;;;;;;28.70;15.27;;;-1.10;99.90;;;;;;5024794;28;20045;-72
2023/02/07 02:09:36;;;;;;;27.00;15.32;;;-1.20;99.90;;;;;;5032141;28;20060;-71
2023/02/07 02:12:08;;;;;;;28.20;15.95;;;-1.20;99.90;;;;;;5031846;28;20041;-71
2023/02/07 02:15:02;;;;;;;26.08;15.00;;;-1.10;99.90;;;;;;5036875;28;20352;-71
2023/02/07 02:17:40;;;;;;;28.80;15.65;;;-1.20;99.90;;;;;;5022425;28;20053;-71
2023/02/07 02:20:12;;;;;;;35.58;17.08;;;-1.30;99.90;;;;;;5051400;28;20046;-71
2023/02/07 02:23:11;;;;;;;32.90;17.23;;;-1.40;99.90;;;;;;5044707;28;20095;-71
2023/02/07 02:26:08;;;;;;;33.90;17.90;;;-1.40;99.90;;;;;;5027332;28;20033;-71
2023/02/07 02:29:04;;;;;;;33.63;17.88;;;-1.30;99.90;;;;;;5016793;28;20486;-71
2023/02/07 02:31:54;;;;;;;25.45;13.45;;;-1.30;99.90;;;;;;5030186;28;20344;-71
2023/02/07 02:34:39;;;;;;;33.65;17.40;;;-1.40;99.90;;;;;;5028813;28;20052;-71
2023/02/07 02:37:31;;;;;;;36.65;18.30;;;-1.30;99.90;;;;;;5028106;28;20064;-71
2023/02/07 02:40:27;;;;;;;35.90;19.48;;;-1.20;99.90;;;;;;5024670;28;20478;-71
2023/02/07 02:43:00;;;;;;;34.05;19.02;;;-1.30;99.90;;;;;;5031126;28;20703;-71
2023/02/07 02:45:49;;;;;;;37.65;19.13;;;-1.50;99.90;;;;;;5031519;28;20508;-71
2023/02/07 02:48:15;;;;;;;30.90;18.33;;;-1.50;99.90;;;;;;5052718;28;20064;-71
2023/02/07 02:50:44;;;;;;;37.30;19.58;;;-1.50;99.90;;;;;;5025510;28;20045;-72
2023/02/07 02:53:10;;;;;;;40.50;20.48;;;-1.50;99.90;;;;;;5026177;28;20045;-71
2023/02/07 02:55:38;;;;;;;37.90;18.88;;;-1.50;99.90;;;;;;5032422;28;20051;-72
2023/02/07 02:58:13;;;;;;;41.17;20.95;;;-1.60;99.90;;;;;;5037939;28;20136;-71
2023/02/07 03:00:48;;;;;;;35.83;20.10;;;-1.70;99.90;;;;;;5020752;28;20034;-72
2023/02/07 03:03:21;;;;;;;37.22;20.40;;;-1.60;99.90;;;;;;5024931;28;20128;-72
2023/02/07 03:06:06;;;;;;;35.50;19.73;;;-1.40;99.90;;;;;;5013001;28;20068;-71
2023/02/07 03:08:38;;;;;;;43.63;20.92;;;-1.40;99.90;;;;;;5032608;28;20049;-71
2023/02/07 03:11:13;;;;;;;37.60;19.65;;;-1.40;99.90;;;;;;5023119;28;20049;-71
2023/02/07 03:14:00;;;;;;;37.83;20.48;;;-1.40;99.90;;;;;;5025340;28;20053;-71
2023/02/07 03:16:37;;;;;;;40.67;21.10;;;-1.60;99.90;;;;;;5024740;28;20069;-71
2023/02/07 03:19:03;;;;;;;41.20;20.70;;;-1.60;99.90;;;;;;5026944;28;20069;-71
2023/02/07 03:21:29;;;;;;;41.78;22.52;;;-1.60;99.90;;;;;;5030673;28;20073;-72
2023/02/07 03:23:56;;;;;;;35.38;19.05;;;-1.60;99.90;;;;;;5026345;28;20042;-71
2023/02/07 03:26:22;;;;;;;33.80;19.08;;;-1.80;99.90;;;;;;5022693;28;20055;-71
2023/02/07 03:28:48;;;;;;;35.45;19.17;;;-1.60;99.90;;;;;;5018228;28;20076;-71
2023/02/07 03:31:16;;;;;;;38.85;20.27;;;-1.50;99.90;;;;;;5002178;28;20431;-71
2023/02/07 03:33:42;;;;;;;32.95;18.33;;;-1.60;99.90;;;;;;5029650;28;20059;-72
2023/02/07 03:36:14;;;;;;;32.00;16.85;;;-1.60;99.90;;;;;;5017949;28;20084;-71
2023/02/07 03:38:40;;;;;;;41.60;21.40;;;-1.70;99.90;;;;;;5014816;28;20544;-72
2023/02/07 03:41:12;;;;;;;42.42;21.48;;;-1.80;99.90;;;;;;5025858;28;20045;-71
2023/02/07 03:43:39;;;;;;;33.83;19.35;;;-1.80;99.90;;;;;;5024215;28;20141;-71
2023/02/07 03:46:08;;;;;;;38.42;19.10;;;-1.80;99.90;;;;;;5008089;28;20469;-71
2023/02/07 03:48:34;;;;;;;39.50;20.55;;;-1.90;99.90;;;;;;5014895;28;20045;-71
2023/02/07 03:50:59;;;;;;;36.95;20.08;;;-1.80;99.90;;;;;;4985039;28;20099;-71
2023/02/07 03:53:25;;;;;;;39.88;19.42;;;-1.80;99.90;;;;;;5007759;28;20569;-71
2023/02/07 03:55:52;;;;;;;38.60;20.52;;;-1.70;99.90;;;;;;5001451;28;20045;-71
2023/02/07 03:58:18;;;;;;;33.08;18.05;;;-1.80;99.90;;;;;;5019365;28;20096;-71
2023/02/07 04:00:44;;;;;;;37.45;20.23;;;-1.70;99.90;;;;;;5025661;28;20045;-71
2023/02/07 04:03:11;;;;;;;38.45;19.30;;;-1.70;99.90;;;;;;5030990;28;20041;-72
2023/02/07 04:05:36;;;;;;;36.45;19.10;;;-1.70;99.90;;;;;;5040570;28;20037;-71
2023/02/07 04:08:02;;;;;;;39.15;20.25;;;-1.80;99.90;;;;;;5014700;28;20049;-71
2023/02/07 04:10:30;;;;;;;38.20;19.83;;;-1.80;99.90;;;;;;5029488;28;20326;-72
2023/02/07 04:12:56;;;;;;;;;;;-1.90;99.90;;;;;;5019049;28;20057;-71
2023/02/07 04:15:22;;;;;;;39.47;20.45;;;-1.90;99.90;;;;;;5057316;28;19913;-71
2023/02/07 04:17:47;;;;;;;39.25;19.88;;;-1.90;99.90;;;;;;5046337;28;20441;-72
2023/02/07 04:20:14;;;;;;;35.83;18.55;;;-2.00;99.90;;;;;;5013981;28;20102;-71
2023/02/07 04:22:39;;;;;;;38.60;20.63;;;-1.90;99.90;;;;;;5023574;28;20037;-71
2023/02/07 04:25:05;;;;;;;38.17;19.13;;;-2.00;99.90;;;;;;5008339;28;20052;-71
2023/02/07 04:27:31;;;;;;;39.55;20.95;;;-2.00;99.90;;;;;;5044048;28;20050;-71
2023/02/07 04:29:57;;;;;;;37.60;19.13;;;-2.00;99.90;;;;;;5008178;28;20041;-71
2023/02/07 04:32:23;;;;;;;43.60;21.02;;;-1.90;99.90;;;;;;5015916;28;20753;-71
2023/02/07 04:34:48;;;;;;;41.63;20.48;;;-1.90;99.90;;;;;;5034078;28;20046;-71
2023/02/07 04:37:14;;;;;;;43.55;22.02;;;-2.20;99.90;;;;;;5020413;28;20052;-71
2023/02/07 04:39:40;;;;;;;46.38;22.13;;;-2.20;99.90;;;;;;5011245;28;20060;-71
2023/02/07 04:42:06;;;;;;;40.92;20.45;;;-2.20;99.90;;;;;;5030879;28;20037;-71
2023/02/07 04:44:33;;;;;;;41.65;19.58;;;-2.10;99.90;;;;;;5021812;28;20048;-72
2023/02/07 04:46:59;;;;;;;42.75;20.35;;;-2.00;99.90;;;;;;5031237;28;20124;-71
2023/02/07 04:49:25;;;;;;;41.08;20.15;;;-2.30;99.90;;;;;;5019984;28;20454;-71
2023/02/07 04:51:50;;;;;;;41.97;21.88;;;-2.30;99.90;;;;;;4999055;28;20060;-71
2023/02/07 04:54:16;;;;;;;46.13;21.67;;;-2.30;99.90;;;;;;5023915;28;20067;-71
2023/02/07 04:56:42;;;;;;;39.55;20.42;;;-2.40;99.90;;;;;;5026373;28;20132;-71
2023/02/07 04:59:07;;;;;;;43.45;21.88;;;-2.40;99.90;;;;;;5013161;28;20060;-71
2023/02/07 05:01:33;;;;;;;44.50;20.50;;;-2.30;99.90;;;;;;5017381;28;20613;-71
2023/02/07 05:03:59;;;;;;;41.10;21.45;;;-2.50;99.90;;;;;;5024227;28;20081;-71
2023/02/07 05:06:26;;;;;;;39.55;20.23;;;-2.50;99.90;;;;;;5033490;28;20477;-71
2023/02/07 05:08:52;;;;;;;43.00;20.75;;;-2.50;99.90;;;;;;5029621;28;20319;-71
2023/02/07 05:11:18;;;;;;;44.88;22.02;;;-2.40;99.90;;;;;;4985200;28;20790;-72
2023/02/07 05:13:44;;;;;;;41.38;20.55;;;-2.50;99.90;;;;;;4990693;28;20108;-72
2023/02/07 05:16:09;;;;;;;39.55;20.90;;;-2.60;99.90;;;;;;5029202;28;20474;-71
2023/02/07 05:18:35;;;;;;;45.33;21.60;;;-2.60;99.90;;;;;;5017763;28;20049;-71
2023/02/07 05:21:01;;;;;;;44.20;22.63;;;-2.60;99.90;;;;;;5011586;28;20132;-70
2023/02/07 05:23:27;;;;;;;47.28;24.02;;;-2.50;99.90;;;;;;5023219;28;20654;-71
2023/02/07 05:25:52;;;;;;;44.22;22.20;;;-2.60;99.90;;;;;;5014755;28;20072;-71
2023/02/07 05:28:19;;;;;;;45.85;22.50;;;-2.60;99.90;;;;;;5054813;28;20045;-71
2023/02/07 05:30:45;;;;;;;48.63;23.80;;;-2.60;99.90;;;;;;4995962;28;20085;-71
2023/02/07 05:33:11;;;;;;;45.55;22.33;;;-2.60;99.90;;;;;;5016636;28;20046;-71
2023/02/07 05:35:45;;;;;;;47.00;24.05;;;-2.60;99.90;;;;;;5025150;28;20103;-71
2023/02/07 05:38:15;;;;;;;50.70;23.40;;;-2.70;99.90;;;;;;5023583;28;20229;-71
2023/02/07 05:40:41;;;;;;;49.55;23.17;;;-2.90;99.90;;;;;;5014365;28;20049;-71
2023/02/07 05:43:07;;;;;;;56.80;25.85;;;-2.80;99.90;;;;;;4989480;28;20053;-71
2023/02/07 05:45:32;;;;;;;49.70;24.67;;;-2.70;99.90;;;;;;5023266;28;20125;-71
2023/02/07 05:47:58;;;;;;;49.22;24.55;;;-2.80;99.90;;;;;;5023150;28;20446;-71
2023/02/07 05:50:24;;;;;;;51.67;25.65;;;-2.70;99.90;;;;;;5010357;28;20058;-71
2023/02/07 05:52:50;;;;;;;53.60;26.20;;;-2.70;99.90;;;;;;5019701;28;20103;-71
2023/02/07 05:55:16;;;;;;;47.50;22.88;;;-2.60;99.90;;;;;;5016081;28;20127;-71
2023/02/07 05:57:42;;;;;;;50.72;24.90;;;-2.50;99.90;;;;;;5020364;28;20056;-71
2023/02/07 06:00:12;;;;;;;42.55;21.55;;;-2.60;99.90;;;;;;5027708;28;20409;-71
2023/02/07 06:02:39;;;;;;;49.88;24.30;;;-2.60;99.90;;;;;;5024133;28;20363;-71
2023/02/07 06:05:06;;;;;;;51.70;26.23;;;-2.60;99.90;;;;;;5003284;28;20045;-71
2023/02/07 06:07:32;;;;;;;43.00;22.77;;;-2.60;99.90;;;;;;5026530;28;20037;-75
2023/02/07 06:09:58;;;;;;;46.78;22.58;;;-2.70;99.90;;;;;;5000253;28;20391;-75
2023/02/07 06:12:23;;;;;;;47.63;23.25;;;-2.60;99.90;;;;;;5017502;28;20050;-73
2023/02/07 06:14:49;;;;;;;44.58;21.95;;;-2.50;99.90;;;;;;5026368;28;20053;-73
2023/02/07 06:17:15;;;;;;;42.20;21.05;;;-2.60;99.90;;;;;;5014881;28;20041;-75
2023/02/07 06:19:41;;;;;;;47.45;24.10;;;-2.60;99.90;;;;;;5005635;28;20054;-75
2023/02/07 06:22:07;;;;;;;55.22;24.65;;;-2.80;99.90;;;;;;5039613;28;20045;-74
2023/02/07 06:24:32;;;;;;;53.75;24.17;;;-2.60;99.90;;;;;;4985361;28;20038;-73
2023/02/07 06:26:58;;;;;;;49.78;23.95;;;-2.80;99.90;;;;;;5010127;28;20037;-73
2023/02/07 06:29:24;;;;;;;46.17;23.38;;;-2.80;99.90;;;;;;4998461;28;20045;-73
2023/02/07 06:31:50;;;;;;;51.20;24.65;;;-2.90;99.90;;;;;;5024627;28;20377;-73
2023/02/07 06:34:15;;;;;;;53.05;25.02;;;-2.90;99.90;;;;;;5003149;28;20037;-73
2023/02/07 06:36:41;;;;;;;49.53;23.92;;;-3.00;99.90;;;;;;5009771;28;20051;-73
2023/02/07 06:39:08;;;;;;;51.78;24.42;;;-3.00;99.90;;;;;;5025651;28;20050;-73
2023/02/07 06:41:34;;;;;;;52.20;25.50;;;-3.10;99.90;;;;;;5028957;28;20152;-73
2023/02/07 06:43:59;;;;;;;50.50;24.35;;;-3.10;99.90;;;;;;5025925;28;20046;-73
2023/02/07 06:46:25;;;;;;;52.13;25.25;;;-2.90;99.90;;;;;;4997510;28;20372;-73
2023/02/07 06:48:51;;;;;;;52.10;24.27;;;-2.90;99.90;;;;;;5030559;28;20642;-73
2023/02/07 06:51:17;;;;;;;51.60;23.05;;;-3.00;99.90;;;;;;5009605;28;20084;-73
2023/02/07 06:53:42;;;;;;;51.72;25.80;;;-3.10;99.90;;;;;;4993925;28;20052;-73
2023/02/07 06:56:08;;;;;;;55.83;25.27;;;-3.00;99.90;;;;;;4984644;28;20045;-73
2023/02/07 06:58:34;;;;;;;57.58;25.58;;;-3.00;99.90;;;;;;5015405;28;20494;-73
2023/02/07 07:01:01;;;;;;;45.55;21.90;;;-3.10;99.90;;;;;;4988302;28;20052;-73
2023/02/07 07:03:28;;;;;;;50.85;24.08;;;-3.20;99.90;;;;;;5047945;28;20053;-73
2023/02/07 07:05:55;;;;;;;51.72;22.50;;;-3.10;99.90;;;;;;5006171;28;20038;-73
2023/02/07 07:08:20;;;;;;;45.58;23.15;;;-3.10;99.90;;;;;;5005221;28;20045;-73
2023/02/07 07:10:47;;;;;;;46.33;23.38;;;-3.10;99.90;;;;;;5027755;28;20056;-73
2023/02/07 07:13:14;;;;;;;52.53;25.98;;;-3.20;99.90;;;;;;5010959;28;20065;-73
2023/02/07 07:15:40;;;;;;;46.72;23.58;;;-3.20;99.90;;;;;;5024400;28;20041;-73
2023/02/07 07:18:06;;;;;;;52.00;25.23;;;-3.10;99.90;;;;;;5009233;28;20516;-73
2023/02/07 07:20:31;;;;;;;53.15;24.75;;;-3.00;99.90;;;;;;5042796;28;20046;-73
2023/02/07 07:22:57;;;;;;;50.55;23.60;;;-3.00;99.90;;;;;;5006954;28;20048;-74
2023/02/07 07:25:23;;;;;;;52.65;25.75;;;-3.10;99.90;;;;;;4982145;28;20088;-75
2023/02/07 07:27:50;;;;;;;50.15;25.38;;;-3.00;99.90;;;;;;5034069;28;20049;-75
2023/02/07 07:30:16;;;;;;;51.45;25.08;;;-2.90;99.90;;;;;;5015862;28;20056;-75
2023/02/07 07:32:42;;;;;;;49.97;23.88;;;-2.80;99.90;;;;;;5018302;28;20454;-75
2023/02/07 07:35:08;;;;;;;59.05;26.40;;;-2.90;99.90;;;;;;5024236;28;20049;-75
2023/02/07 07:37:33;;;;;;;44.75;22.92;;;-2.80;99.90;;;;;;5015224;28;20565;-75
2023/02/07 07:39:59;;;;;;;55.75;25.80;;;-2.80;99.90;;;;;;4994584;28;20048;-74
2023/02/07 07:42:25;;;;;;;50.85;24.77;;;-2.80;99.90;;;;;;5032968;28;20474;-74
2023/02/07 07:44:51;;;;;;;52.08;25.17;;;-2.80;99.90;;;;;;5033829;28;20615;-75
2023/02/07 07:47:17;;;;;;;59.00;27.33;;;-2.70;99.90;;;;;;5015802;28;20484;-75
2023/02/07 07:49:43;;;;;;;55.08;26.13;;;-2.70;99.90;;;;;;5009925;28;20135;-75
2023/02/07 07:52:09;;;;;;;51.60;25.17;;;-2.70;99.90;;;;;;4978220;28;20045;-74
2023/02/07 07:54:35;;;;;;;51.67;25.23;;;-2.70;99.90;;;;;;5012600;28;20060;-75
2023/02/07 07:57:01;;;;;;;56.75;25.98;;;-2.80;99.90;;;;;;5011454;28;20111;-74
2023/02/07 07:59:27;;;;;;;56.67;27.33;;;-2.60;99.90;;;;;;5033087;28;20053;-75
2023/02/07 08:01:52;;;;;;;55.95;26.98;;;-2.60;99.90;;;;;;4998465;28;20088;-75
2023/02/07 08:04:18;;;;;;;49.83;25.92;;;-2.50;99.90;;;;;;5012896;28;20124;-74
2023/02/07 08:06:44;;;;;;;48.95;24.50;;;-2.40;99.90;;;;;;5002850;28;20041;-73
2023/02/07 08:09:10;;;;;;;47.08;23.92;;;-2.60;99.90;;;;;;5029478;28;20053;-73
2023/02/07 08:11:36;;;;;;;48.85;24.35;;;-2.60;99.90;;;;;;5015409;28;20061;-73
2023/02/07 08:14:01;;;;;;;49.67;24.00;;;-2.40;99.90;;;;;;5025512;28;20136;-73
2023/02/07 08:16:27;;;;;;;39.97;21.27;;;-2.30;99.90;;;;;;5024526;28;20083;-73
2023/02/07 08:18:53;;;;;;;42.47;21.83;;;-2.30;99.90;;;;;;5036055;28;20195;-73
2023/02/07 08:21:19;;;;;;;41.83;21.88;;;-2.20;99.90;;;;;;5019213;28;20549;-73
2023/02/07 08:23:46;;;;;;;36.53;19.27;;;-2.10;99.90;;;;;;5016748;28;20045;-73
2023/02/07 08:26:11;;;;;;;39.67;20.33;;;-2.10;99.90;;;;;;5029006;28;20042;-73
2023/02/07 08:28:37;;;;;;;42.63;21.35;;;-2.10;99.90;;;;;;5017831;28;20045;-73
2023/02/07 08:31:04;;;;;;;41.53;19.90;;;-2.00;99.90;;;;;;5025546;28;20449;-73
2023/02/07 08:33:30;;;;;;;38.90;20.65;;;-2.00;99.90;;;;;;5021784;28;20121;-73
2023/02/07 08:35:57;;;;;;;38.08;19.73;;;-1.90;99.90;;;;;;5019291;28;20486;-73
2023/02/07 08:38:23;;;;;;;40.35;20.30;;;-2.00;99.90;;;;;;5025014;28;20050;-73
2023/02/07 08:40:49;;;;;;;39.70;20.42;;;-1.90;99.90;;;;;;5043408;28;20099;-72
2023/02/07 08:43:15;;;;;;;41.13;21.27;;;-1.80;99.90;;;;;;5001757;28;20046;-72
2023/02/07 08:45:42;;;;;;;40.83;22.02;;;-1.70;99.90;;;;;;5022965;28;20057;-72
2023/02/07 08:48:08;;;;;;;42.45;21.02;;;-1.60;99.90;;;;;;4998066;28;20049;-72
2023/02/07 08:50:34;;;;;;;43.47;22.05;;;-1.50;99.90;;;;;;5005080;28;20049;-72
2023/02/07 08:53:00;;;;;;;39.80;21.75;;;-1.40;99.90;;;;;;5017593;28;20053;-72
2023/02/07 08:55:26;;;;;;;40.92;21.83;;;-1.30;99.90;;;;;;5024376;28;20046;-72
2023/02/07 08:57:51;;;;;;;36.55;19.52;;;-1.10;99.90;;;;;;5020598;28;21988;-72
2023/02/07 09:00:18;;;;;;;38.90;20.35;;;-1.10;99.90;;;;;;4978433;28;20489;-72
2023/02/07 09:02:44;;;;;;;39.85;22.02;;;-1.10;99.90;;;;;;5039750;28;20050;-72
2023/02/07 09:05:10;;;;;;;35.88;20.40;;;-1.10;99.90;;;;;;5010330;28;20367;-72
2023/02/07 09:07:36;;;;;;;41.47;22.63;;;-0.90;99.90;;;;;;4996791;28;20052;-72
2023/02/07 09:10:05;;;;;;;37.97;20.75;;;-0.80;99.90;;;;;;5004386;28;20469;-72
2023/02/07 09:12:32;;;;;;;40.47;21.40;;;-0.70;99.90;;;;;;5036745;28;20053;-72
2023/02/07 09:14:57;;;;;;;39.17;20.73;;;-0.70;99.90;;;;;;5002638;28;20488;-72
2023/02/07 09:17:23;;;;;;;38.72;20.95;;;-0.60;99.90;;;;;;5007459;28;20057;-73
2023/02/07 09:19:49;;;;;;;37.85;19.48;;;-0.70;99.90;;;;;;5045780;28;20370;-72
2023/02/07 09:22:15;;;;;;;41.78;22.50;;;-0.70;99.90;;;;;;5006552;28;20068;-73
2023/02/07 09:24:40;;;;;;;38.63;22.23;;;-0.70;99.90;;;;;;5012955;28;20065;-72
2023/02/07 09:27:06;;;;;;;38.90;22.02;;;-0.60;99.90;;;;;;5013879;28;20045;-73
2023/02/07 09:29:32;;;;;;;38.28;20.88;;;-0.50;99.90;;;;;;5010186;28;20060;-72
2023/02/07 09:31:58;;;;;;;40.40;20.73;;;-0.40;99.90;;;;;;5023988;28;20084;-72
2023/02/07 09:34:24;;;;;;;39.00;21.13;;;-0.40;99.90;;;;;;5007086;28;20128;-73
2023/02/07 09:36:50;;;;;;;40.22;20.75;;;-0.40;99.90;;;;;;5009935;28;20057;-72
2023/02/07 09:39:16;;;;;;;36.58;20.35;;;-0.50;99.90;;;;;;5012564;28;20547;-72
2023/02/07 09:42:00;;;;;;;30.70;18.50;;;-0.40;99.90;;;;;;5012944;28;20048;-72
2023/02/07 09:44:43;;;;;;;34.80;18.33;;;-0.30;99.90;;;;;;5014987;28;20050;-73
2023/02/07 09:47:17;;;;;;;31.77;17.58;;;-0.10;99.90;;;;;;5030015;28;20046;-72
2023/02/07 09:49:53;;;;;;;38.30;19.20;;;0.00;99.90;;;;;;5016843;28;20079;-73
2023/02/07 09:52:24;;;;;;;28.38;16.75;;;0.10;99.90;;;;;;5023518;28;20045;-73
2023/02/07 09:54:52;;;;;;;55.95;17.27;;;0.20;99.90;;;;;;5011318;28;20050;-72
2023/02/07 09:57:26;;;;;;;56.33;26.80;;;0.30;99.90;;;;;;5000432;28;20049;-72
2023/02/07 10:00:00;;;;;;;66.30;29.60;;;0.80;99.90;;;;;;5033161;28;20041;-72
2023/02/07 10:02:43;;;;;;;53.42;23.42;;;1.60;99.90;;;;;;5001548;28;20060;-72
2023/02/07 10:05:20;;;;;;;49.53;20.65;;;1.90;99.90;;;;;;5020734;28;20133;-72
2023/02/07 10:07:46;;;;;;;26.42;14.32;;;1.60;99.90;;;;;;5039336;28;20065;-73
2023/02/07 10:10:16;;;;;;;26.10;14.55;;;1.50;99.90;;;;;;5005926;28;20405;-72
2023/02/07 10:13:04;;;;;;;30.27;16.40;;;1.60;99.90;;;;;;5027156;28;20060;-72
2023/02/07 10:15:40;;;;;;;27.00;14.05;;;1.90;99.90;;;;;;5056293;28;20127;-73
2023/02/07 10:18:29;;;;;;;25.40;12.75;;;1.60;99.90;;;;;;5036561;28;20124;-73
2023/02/07 10:21:19;;;;;;;23.13;12.40;;;1.80;99.90;;;;;;5023965;28;20038;-72
2023/02/07 10:24:03;;;;;;;25.98;13.30;;;1.90;99.90;;;;;;5024612;28;20049;-73
2023/02/07 10:27:08;;;;;;;22.52;11.43;;;2.20;99.90;;;;;;5030091;28;20046;-73
2023/02/07 10:30:09;;;;;;;21.90;12.15;;;1.70;99.90;;;;;;5005370;28;20118;-73
2023/02/07 10:32:36;;;;;;;21.23;11.25;;;1.90;99.90;;;;;;5012232;28;20052;-74
2023/02/07 10:35:23;;;;;;;22.17;12.13;;;1.90;99.90;;;;;;5011657;28;20053;-74
2023/02/07 10:37:51;;;;;;;18.08;9.85;;;2.40;99.90;;;;;;5000043;28;20042;-74
2023/02/07 10:40:24;;;;;;;19.52;11.60;;;2.70;99.90;;;;;;4999248;28;20041;-73
2023/02/07 10:43:09;;;;;;;19.35;10.70;;;2.50;99.90;;;;;;5030413;28;20042;-74
2023/02/07 10:45:36;;;;;;;21.23;11.63;;;2.60;99.90;;;;;;4993676;28;20486;-71
2023/02/07 10:48:13;;;;;;;19.65;11.50;;;3.10;99.90;;;;;;4993313;28;20050;-72
2023/02/07 10:50:39;;;;;;;21.10;11.23;;;3.50;99.90;;;;;;5037745;28;20049;-72
2023/02/07 10:53:05;;;;;;;19.10;10.88;;;3.50;99.90;;;;;;5021272;28;20119;-72
2023/02/07 10:55:45;;;;;;;20.25;11.35;;;3.50;99.90;;;;;;5023879;28;20164;-72
2023/02/07 10:58:16;;;;;;;17.73;10.43;;;3.40;99.90;;;;;;5011637;28;20155;-72
2023/02/07 11:00:47;;;;;;;18.08;10.25;;;3.70;99.90;;;;;;5003577;28;20052;-72
2023/02/07 11:03:14;;;;;;;20.60;11.43;;;4.10;99.90;;;;;;5002430;28;20052;-72
2023/02/07 11:05:51;;;;;;;19.58;11.00;;;4.20;99.90;;;;;;5003895;28;20108;-73
2023/02/07 11:08:21;;;;;;;18.48;11.05;;;4.80;99.90;;;;;;5045369;28;20059;-72
2023/02/07 11:10:48;;;;;;;20.92;11.25;;;4.50;97.30;;;;;;5003757;28;20060;-72
2023/02/07 11:13:15;;;;;;;17.58;9.85;;;6.10;95.60;;;;;;5026125;28;20081;-72
2023/02/07 11:16:07;;;;;;;18.25;11.02;;;9.60;84.30;;;;;;5011533;28;20137;-73
2023/02/07 11:18:39;;;;;;;16.60;10.88;;;12.70;59.40;;;;;;5021449;28;20049;-73
2023/02/07 11:21:57;;;;;;;20.60;10.98;;;13.00;49.30;;;;;;5045917;28;20414;-73
2023/02/07 11:24:30;;;;;;;15.77;10.60;;;12.30;48.10;;;;;;4991796;28;20045;-74
2023/02/07 11:27:11;;;;;;;16.98;10.23;;;12.40;48.10;;;;;;5026848;28;20144;-74
2023/02/07 11:29:52;;;;;;;16.50;10.02;;;12.90;46.60;;;;;;5021264;28;20091;-72
2023/02/07 11:32:18;;;;;;;14.55;9.75;;;11.80;49.20;;;;;;5043600;28;20045;-74
2023/02/07 11:34:57;;;;;;;14.02;9.60;;;12.00;51.20;;;;;;5019869;28;20046;-72
2023/02/07 11:37:28;;;;;;;14.52;9.95;;;12.10;51.50;;;;;;5024269;28;20494;-72
2023/02/07 11:40:27;;;;;;;16.13;10.38;;;12.40;53.20;;;;;;5014216;28;20085;-72
2023/02/07 11:43:05;;;;;;;16.20;10.20;;;13.40;47.30;;;;;;5021713;28;20579;-72
2023/02/07 11:45:33;;;;;;;14.40;9.82;;;14.70;43.20;;;;;;5052616;28;20048;-72
2023/02/07 11:47:59;;;;;;;15.23;9.98;;;14.30;45.00;;;;;;5009072;28;20041;-72
2023/02/07 11:50:35;;;;;;;15.63;10.15;;;14.40;44.00;;;;;;5025683;28;20053;-73
2023/02/07 11:53:01;;;;;;;13.80;9.77;;;14.70;44.30;;;;;;5041952;28;20130;-72
2023/02/07 11:55:34;;;;;;;15.02;10.85;;;13.70;45.90;;;;;;5031330;28;20787;-72
2023/02/07 11:58:07;;;;;;;14.30;9.75;;;12.70;47.00;;;;;;5008160;28;20053;-72
2023/02/07 12:00:34;;;;;;;15.95;10.30;;;13.60;46.10;;;;;;5040822;28;20493;-72
2023/02/07 12:03:27;;;;;;;14.23;10.27;;;13.80;45.10;;;;;;5007007;28;20459;-73
2023/02/07 12:05:55;;;;;;;16.00;10.70;;;11.70;48.90;;;;;;5006933;28;20087;-73
2023/02/07 12:08:23;;;;;;;15.43;10.40;;;12.50;50.70;;;;;;5023304;28;20050;-73
2023/02/07 12:11:01;;;;;;;13.80;9.68;;;12.20;50.90;;;;;;5004902;28;20363;-72
2023/02/07 12:13:46;;;;;;;;;;;14.10;45.70;;;;;;5033643;28;20085;-72
2023/02/07 12:16:19;;;;;;;15.68;10.63;;;14.40;45.70;;;;;;5006769;28;19909;-72
2023/02/07 12:19:17;;;;;;;15.18;10.52;;;15.30;44.10;;;;;;5024557;28;20855;-72
2023/02/07 12:21:58;;;;;;;15.80;10.75;;;15.00;39.20;;;;;;5008070;28;20092;-72
2023/02/07 12:24:26;;;;;;;13.50;10.40;;;15.20;41.80;;;;;;5043818;28;20045;-72
2023/02/07 12:27:03;;;;;;;13.70;9.68;;;15.70;42.00;;;;;;5019594;28;20045;-73
2023/02/07 12:29:35;;;;;;;14.83;10.93;;;13.70;43.80;;;;;;5014088;28;20061;-72
2023/02/07 12:32:12;;;;;;;14.52;10.27;;;13.50;45.20;;;;;;5004200;28;20733;-73
2023/02/07 12:34:56;;;;;;;13.68;11.10;;;15.30;42.80;;;;;;5002818;28;20049;-72
2023/02/07 12:37:46;;;;;;;15.55;11.95;;;15.30;42.70;;;;;;5023965;28;20172;-73
2023/02/07 12:40:13;;;;;;;13.95;10.23;;;15.90;40.90;;;;;;5017972;28;20129;-72
2023/02/07 12:43:07;;;;;;;15.47;11.97;;;17.30;39.30;;;;;;4991637;28;20050;-73